Leighton, Iowa
Current Conditions -  °F | °C
As of 7:35 PM on Tuesday 21 Oct 2014 (Local Time) from KPEA Reporting Station
Clear Clear  
Wind Chill: 54°   Ceiling: Unl
Heat Index: 54°   Visibility: 10mi
Dew Point: 42°   Wind: 6mph
Humidity: 63%   Direction: 110°ESE
Pressure: 30.16"   Gusts: NA
Location:  41.34°N, 92.79°W
Report Text: KPEA 220035Z AUTO 11005KT 10SM CLR 12/06 A3016 RMK AO2 T01230055
Loading
Personal Weather Stations






























Interactive Weather Map
Tropical Storm Tracking
New forecast layout! Learn more

10-Day Weather Forecast

Advertisements
Track Severe Weather on mobile